Thunder radar more information blitzortung!


Radar de pluja more information rain snow radar


Visita la nostra xarxa de llocs de meteo:

Template documentation
and downloads

And another site



No particular awareness of the weather is required.    There are no Weather-warnings

Pagina Historial Weather Underground text

Diari Resum Novembre 18, 2017 Unitats:  Mètric    Imperial   Tant
« Previous Dia
SegĂźent Dia »
Diari Setmana Mensual Anual Personalitzada
  Maxima: Minima: Media:
Temperatura: -17.8 °C -15.6 °C -11.6 °C
Punt de rosada: -17.8 °C -19.9 °C -16.4 °C
Humitat: Humidity % 46 % 55 %
Wind Speed: 0 km/h 0 km/h 4.8 km/h
RĂ fegues de vent: 0 km/h - -
Vent:- - South
Pression baro: 0 hPa 34496.6 hPa -
Precipitacions: 0 mm    
Historical Graphs
 
 
Dades de taula per Novembre 18, 2017
Temps Temperatura Punt de rosada Pression baro Vent Wind Speed RĂ fegues de vent Humitat Rainfall Rate (Hourly)
-17.8 °C -17.8 °C 0 hPa Calm     Humidity % 0 mm
00:05 -12.8 °C -18.9 °C 34533.8 hPa West 3.7 km/h   46 % 0 mm
00:10 -12.9 °C -19.1 °C 34533.8 hPa West 3.1 km/h   46 % 0 mm
00:15 -13.1 °C -19.2 °C 34533.8 hPa Calm     46 % 0 mm
00:25 -14.9 °C -19.5 °C 34496.6 hPa Calm   5.1 km/h 55 % 0 mm
00:35 -14.9 °C -19.6 °C 34496.6 hPa WSW 2.6 km/h 5.1 km/h 55 % 0 mm
00:45 -15.3 °C -19.9 °C 34496.6 hPa WSW 5.1 km/h 5.1 km/h 55 % 0 mm
00:55 -15.3 °C -19.8 °C 34496.6 hPa Calm   5.1 km/h 56 % 0 mm
01:05 -15.3 °C -19.6 °C 34496.6 hPa Calm   5.1 km/h 57 % 0 mm
01:15 -15.3 °C -19.6 °C 34533.8 hPa Calm   5.1 km/h 57 % 0 mm
01:25 -15.3 °C -19.7 °C 34533.8 hPa SW 5.1 km/h 7.7 km/h 57 % 0 mm
01:35 -15.6 °C -19.8 °C 34533.8 hPa Calm   7.7 km/h 58 % 0 mm
01:45 -15.4 °C -19.6 °C 34533.8 hPa SW 5.1 km/h 5.1 km/h 58 % 0 mm
01:55 -15.4 °C -19.5 °C 34533.8 hPa Calm   5.1 km/h 59 % 0 mm
02:05 -15.3 °C -19.4 °C 34533.8 hPa Calm   5.1 km/h 59 % 0 mm
02:15 -15.1 °C -19.2 °C 34533.8 hPa West 2.6 km/h 5.1 km/h 59 % 0 mm
02:25 -15.1 °C -19.1 °C 34533.8 hPa NW 2.6 km/h 2.6 km/h 59 % 0 mm
02:35 -14.8 °C -18.8 °C 34533.8 hPa NE 5.1 km/h 5.1 km/h 60 % 0 mm
03:05 -13.9 °C -18.2 °C 34567.7 hPa Calm   2.6 km/h 58 % 0 mm
03:15 -13.6 °C -17.9 °C 34533.8 hPa Calm   2.6 km/h 58 % 0 mm
03:25 -13.6 °C -18 °C 34567.7 hPa North 2.6 km/h 7.7 km/h 57 % 0 mm
03:35 -13.3 °C -17.9 °C 34567.7 hPa North 2.6 km/h 5.1 km/h 56 % 0 mm
03:45 -13.4 °C -17.9 °C 34567.7 hPa Calm   5.1 km/h 56 % 0 mm
03:55 -13.2 °C -17.8 °C 34567.7 hPa WSW 5.1 km/h 7.7 km/h 56 % 0 mm
04:05 -13.2 °C -17.8 °C 34567.7 hPa SW 2.6 km/h 7.7 km/h 56 % 0 mm
04:15 -12.7 °C -17.2 °C 34567.7 hPa SW 2.6 km/h 7.7 km/h 57 % 0 mm
04:25 -12.3 °C -17 °C 34567.7 hPa SW 2.6 km/h 7.7 km/h 56 % 0 mm
04:35 -12.2 °C -17 °C 34567.7 hPa SW 7.7 km/h 7.7 km/h 55 % 0 mm
04:55 -11.4 °C -16.4 °C 34567.7 hPa SSE 2.6 km/h 5.1 km/h 54 % 0 mm
05:05 -11.2 °C -16.2 °C 34567.7 hPa East 2.6 km/h 5.1 km/h 54 % 0 mm
11:08 -11.2 °C -16.4 °C 34567.7 hPa North 9 km/h 9 km/h 53 % 0 mm
11:09 -11.2 °C -16.4 °C 34567.7 hPa North 9 km/h 9 km/h 53 % 0 mm
11:14 -11.2 °C -16.4 °C 34567.7 hPa North 9 km/h 9 km/h 53 % 0 mm
11:19 -11.2 °C -16.3 °C 34601.5 hPa NNE 15 km/h 15 km/h 53 % 0 mm
11:24 -11.2 °C -16.3 °C 34601.5 hPa NNW 11.9 km/h 11.9 km/h 53 % 0 mm
11:29 -11.2 °C -16.3 °C 34601.5 hPa NW 15 km/h 15 km/h 53 % 0 mm
11:34 -10.9 °C -16.2 °C 34601.5 hPa North 3.7 km/h   52 % 0 mm
11:39 -10.8 °C -16.1 °C 34601.5 hPa NNE 6.3 km/h 6.3 km/h 52 % 0 mm
11:44 -10.7 °C -16 °C 34601.5 hPa North 9 km/h 9 km/h 52 % 0 mm
11:49 -10.7 °C -16 °C 34601.5 hPa ESE 9.3 km/h 9.3 km/h 52 % 0 mm
11:54 -10.6 °C -15.9 °C 34601.5 hPa East 9 km/h 9 km/h 52 % 0 mm
11:59 -10.4 °C -15.8 °C 34601.5 hPa NNE 9 km/h 9 km/h 52 % 0 mm
12:04 -10.3 °C -15.7 °C 34601.5 hPa NNW 6 km/h 6 km/h 52 % 0 mm
12:09 -10.2 °C -15.6 °C 34601.5 hPa WNW 9 km/h 9 km/h 52 % 0 mm
12:14 -10.1 °C -15.5 °C 34601.5 hPa NW 7.6 km/h 7.6 km/h 52 % 0 mm
12:19 -9.9 °C -15.3 °C 34601.5 hPa NNE 4.2 km/h 4.2 km/h 52 % 0 mm
12:24 -9.8 °C -15.2 °C 34601.5 hPa NNE 6.8 km/h 6.8 km/h 52 % 0 mm
12:29 -9.7 °C -15.1 °C 34601.5 hPa NNW 9 km/h 9 km/h 52 % 0 mm
12:34 -9.6 °C -15.1 °C 34567.7 hPa NE 6 km/h 6 km/h 52 % 0 mm
12:39 -9.6 °C -15.1 °C 34567.7 hPa ENE 6 km/h 6 km/h 52 % 0 mm
12:44 -9.4 °C -14.9 °C 34567.7 hPa ENE 9 km/h 9 km/h 52 % 0 mm
12:49 -9.4 °C -14.8 °C 34601.5 hPa NE 9.3 km/h 9.3 km/h 52 % 0 mm
12:51 -9.4 °C -14.8 °C 34601.5 hPa NNE 9 km/h 9 km/h 52 % 0 mm
12:56 -9.2 °C -14.8 °C 34601.5 hPa WSW 5.1 km/h   51 % 0 mm
13:01 -9 °C -14.5 °C 34601.5 hPa NNE 6 km/h 6 km/h 52 % 0 mm
13:06 -9.1 °C -14.5 °C 34601.5 hPa NE 6 km/h 6 km/h 52 % 0 mm
13:11 -9 °C -14.5 °C 34601.5 hPa ESE 6 km/h 6 km/h 52 % 0 mm
13:16 -8.9 °C -14.3 °C 34601.5 hPa SW 8 km/h 8 km/h 52 % 0 mm
13:21 -8.7 °C -14.2 °C 34601.5 hPa SW 6 km/h   52 % 0 mm
13:26 -8.7 °C -14 °C 34601.5 hPa NW 3.1 km/h 3.7 km/h 53 % 0 mm
13:31 -8.8 °C -14.1 °C 34601.5 hPa North 3.1 km/h 3.1 km/h 53 % 0 mm
13:36 -8.7 °C -14.1 °C 34601.5 hPa NNE 3.1 km/h   53 % 0 mm
13:41 -8.7 °C -14.1 °C 34601.5 hPa NNW 6 km/h 6 km/h 53 % 0 mm
13:46 -8.6 °C -13.8 °C 34601.5 hPa NNE 5.1 km/h 5.1 km/h 54 % 0 mm
13:51 -8.8 °C -13.9 °C 34567.7 hPa NE 11.9 km/h 11.9 km/h 54 % 0 mm
13:56 -8.8 °C -13.8 °C 34567.7 hPa SE 6 km/h 6 km/h 55 % 0 mm
14:01 -8.8 °C -13.8 °C 34567.7 hPa ESE 9 km/h 9 km/h 55 % 0 mm
14:11 -8.9 °C -13.8 °C 34601.5 hPa ESE 9.3 km/h 9.3 km/h 56 % 0 mm
14:16 -8.9 °C -13.8 °C 34601.5 hPa WSW 5.1 km/h   56 % 0 mm
14:21 -8.8 °C -13.7 °C 34567.7 hPa ESE 6 km/h 6 km/h 56 % 0 mm
14:26 -8.7 °C -13.6 °C 34567.7 hPa ESE 6.3 km/h 6.3 km/h 56 % 0 mm
14:31 -8.7 °C -13.6 °C 34567.7 hPa East 6.3 km/h 6.3 km/h 56 % 0 mm
14:36 -8.7 °C -13.6 °C 34567.7 hPa NE 9 km/h 9 km/h 56 % 0 mm
14:41 -8.7 °C -13.6 °C 34567.7 hPa East 9.3 km/h 9.3 km/h 56 % 0 mm
14:46 -8.7 °C -13.6 °C 34567.7 hPa NNE 9 km/h 9 km/h 56 % 0 mm
14:51 -8.7 °C -13.6 °C 34567.7 hPa SSE 7.6 km/h 7.6 km/h 56 % 0 mm
14:56 -8.6 °C -13.5 °C 34567.7 hPa ESE 9 km/h 9 km/h 56 % 0 mm
15:01 -8.6 °C -13.5 °C 34567.7 hPa NE 6.3 km/h 6.3 km/h 56 % 0 mm
15:06 -8.7 °C -13.6 °C 34567.7 hPa ESE 6.8 km/h 6.8 km/h 56 % 0 mm
15:11 -8.7 °C -13.7 °C 34567.7 hPa ENE 6 km/h 6 km/h 55 % 0 mm
15:16 -8.6 °C -13.5 °C 34567.7 hPa NNE 6.8 km/h 6.8 km/h 56 % 0 mm
15:21 -8.6 °C -13.7 °C 34567.7 hPa NE 6 km/h 6 km/h 55 % 0 mm
15:26 -8.6 °C -13.6 °C 34567.7 hPa Calm     55 % 0 mm
15:31 -8.6 °C -13.6 °C 34567.7 hPa ENE 6.3 km/h 6.3 km/h 55 % 0 mm
15:36 -8.6 °C -13.7 °C 34567.7 hPa East 6 km/h 6 km/h 55 % 0 mm
15:41 -8.6 °C -13.7 °C 34567.7 hPa SE 9 km/h 9 km/h 55 % 0 mm
15:46 -8.6 °C -13.7 °C 34567.7 hPa East 6 km/h 6 km/h 55 % 0 mm
15:51 -8.6 °C -13.6 °C 34567.7 hPa ENE 6.3 km/h 6.3 km/h 55 % 0 mm
15:56 -8.6 °C -13.6 °C 34567.7 hPa ESE 6 km/h 6 km/h 55 % 0 mm
16:01 -8.6 °C -13.7 °C 34567.7 hPa ESE 9 km/h 9 km/h 55 % 0 mm
16:06 -8.6 °C -13.7 °C 34567.7 hPa ESE 5.1 km/h 5.1 km/h 55 % 0 mm
16:11 -8.6 °C -13.7 °C 34567.7 hPa ESE 6.8 km/h 6.8 km/h 55 % 0 mm
16:16 -8.6 °C -13.7 °C 34567.7 hPa ESE 6.8 km/h 6.8 km/h 55 % 0 mm
16:21 -8.7 °C -13.7 °C 34567.7 hPa ESE 6 km/h 6 km/h 55 % 0 mm
16:26 -8.7 °C -13.7 °C 34567.7 hPa East 6 km/h 6 km/h 55 % 0 mm
16:31 -8.7 °C -13.7 °C 34567.7 hPa SE 6.3 km/h 6.3 km/h 55 % 0 mm
16:36 -8.6 °C -13.7 °C 34567.7 hPa South 3.1 km/h 3.1 km/h 55 % 0 mm
16:41 -8.6 °C -13.6 °C 34567.7 hPa SSE 6.8 km/h   55 % 0 mm
16:46 -8.6 °C -13.7 °C 34567.7 hPa South 3.1 km/h 3.1 km/h 55 % 0 mm
16:51 -8.6 °C -13.7 °C 34567.7 hPa South 3.1 km/h   55 % 0 mm
16:56 -8.7 °C -13.6 °C 34567.7 hPa SSE 3.1 km/h   56 % 0 mm
17:01 -8.7 °C -13.6 °C 34567.7 hPa SE 6 km/h 6 km/h 56 % 0 mm
17:06 -8.8 °C -13.8 °C 34567.7 hPa East 3.1 km/h 3.1 km/h 55 % 0 mm
17:11 -8.9 °C -13.8 °C 34567.7 hPa East 3.1 km/h 3.1 km/h 56 % 0 mm
17:16 -8.9 °C -13.8 °C 34567.7 hPa Calm     56 % 0 mm
17:21 -9.1 °C -13.9 °C 34567.7 hPa Calm     56 % 0 mm
17:26 -9.2 °C -14 °C 34567.7 hPa Calm     56 % 0 mm
17:31 -9.3 °C -14 °C 34567.7 hPa WSW 3.7 km/h 3.7 km/h 57 % 0 mm
17:36 -9.4 °C -14.1 °C 34567.7 hPa WSW 3.7 km/h 3.7 km/h 57 % 0 mm
17:41 -9.6 °C -14.3 °C 34567.7 hPa WSW 5.1 km/h 5.1 km/h 57 % 0 mm
17:46 -9.8 °C -14.3 °C 34567.7 hPa WSW 6 km/h 6 km/h 58 % 0 mm
17:51 -9.8 °C -14.3 °C 34601.5 hPa WSW 3.1 km/h 3.1 km/h 58 % 0 mm
17:56 -10 °C -14.7 °C 34601.5 hPa WNW 3.7 km/h 3.7 km/h 57 % 0 mm
18:01 -10.1 °C -14.8 °C 34601.5 hPa WSW 9 km/h 9 km/h 56 % 0 mm
18:03 -10.1 °C -14.8 °C 34601.5 hPa WNW 3.1 km/h   56 % 0 mm
18:08 -10.2 °C -14.8 °C 34601.5 hPa East 8 km/h 8 km/h 57 % 0 mm
18:13 -10.2 °C -14.7 °C 34601.5 hPa WSW 7.6 km/h 7.6 km/h 58 % 0 mm
18:18 -10.3 °C -14.9 °C 34601.5 hPa West 5.1 km/h 5.1 km/h 57 % 0 mm
18:23 -10.4 °C -15.1 °C 34601.5 hPa WSW 6 km/h 6 km/h 57 % 0 mm
18:28 -10.5 °C -15.1 °C 34601.5 hPa West 6 km/h 6 km/h 57 % 0 mm
18:33 -10.6 °C -15.4 °C 34601.5 hPa West 6 km/h 6 km/h 56 % 0 mm
18:38 -10.7 °C -15.6 °C 34601.5 hPa West 9 km/h 9 km/h 55 % 0 mm
18:43 -10.7 °C -15.8 °C 34601.5 hPa SW 6 km/h 6 km/h 54 % 0 mm
18:48 -10.9 °C -15.9 °C 34601.5 hPa SW 5.1 km/h 5.1 km/h 54 % 0 mm
18:53 -11 °C -16.2 °C 34601.5 hPa SW 6 km/h 6 km/h 53 % 0 mm
18:58 -11.1 °C -16.3 °C 34601.5 hPa SW 4.2 km/h 4.2 km/h 53 % 0 mm
19:00 -13.7 °C -18.2 °C 34567.7 hPa NW 2.6 km/h 5.1 km/h 57 % 0 mm
19:03 -11.2 °C -16.4 °C 34601.5 hPa SW 9 km/h 9 km/h 53 % 0 mm
19:08 -11.3 °C -16.5 °C 34601.5 hPa SW 9 km/h 9 km/h 53 % 0 mm
19:10 -13.8 °C -18.1 °C 34567.7 hPa North 2.6 km/h 5.1 km/h 58 % 0 mm
19:13 -11.4 °C -16.6 °C 34601.5 hPa SW 6 km/h 6 km/h 53 % 0 mm
19:18 -11.5 °C -16.6 °C 34601.5 hPa WSW 9 km/h 9 km/h 53 % 0 mm
19:20 -14 °C -18.3 °C 34567.7 hPa Calm   2.6 km/h 58 % 0 mm
19:23 -11.6 °C -16.7 °C 34601.5 hPa SW 6.3 km/h 6.3 km/h 53 % 0 mm
19:28 -11.6 °C -16.7 °C 34601.5 hPa WSW 6 km/h 6 km/h 53 % 0 mm
19:33 -11.6 °C -16.7 °C 34601.5 hPa SW 6.3 km/h 6.3 km/h 53 % 0 mm
19:38 -11.7 °C -16.8 °C 34601.5 hPa WSW 6 km/h 6 km/h 53 % 0 mm
19:40 -14.3 °C -18.4 °C 34533.8 hPa Calm   5.1 km/h 59 % 0 mm
19:43 -11.7 °C -16.8 °C 34601.5 hPa WSW 6 km/h   53 % 0 mm
19:48 -11.7 °C -16.8 °C 34601.5 hPa Calm     53 % 0 mm
19:50 -14.3 °C -18.3 °C 34533.8 hPa WSW 2.6 km/h 2.6 km/h 60 % 0 mm
19:53 -11.7 °C -16.8 °C 34601.5 hPa East 6 km/h 6 km/h 53 % 0 mm
19:58 -11.8 °C -16.9 °C 34601.5 hPa Calm     53 % 0 mm
20:03 -11.9 °C -17 °C 34601.5 hPa WSW 6 km/h 6 km/h 53 % 0 mm
20:08 -11.9 °C -17.1 °C 34601.5 hPa SW 3.7 km/h 3.7 km/h 53 % 0 mm
20:10 -14.6 °C -18.4 °C 34496.6 hPa Calm   2.6 km/h 61 % 0 mm
20:13 -11.9 °C -17.1 °C 34601.5 hPa SW 6 km/h 6 km/h 53 % 0 mm
20:18 -12 °C -17.1 °C 34601.5 hPa Calm     53 % 0 mm
20:20 -14.6 °C -18.4 °C 34496.6 hPa WSW 2.6 km/h 5.1 km/h 61 % 0 mm
20:23 -12.1 °C -17.2 °C 34601.5 hPa Calm     53 % 0 mm
20:28 -12.2 °C -17.3 °C 34601.5 hPa WSW 6.8 km/h 6.8 km/h 53 % 0 mm
20:30 -14.4 °C -18.3 °C 34533.8 hPa West 2.6 km/h 5.1 km/h 61 % 0 mm
20:38 -12.2 °C -17.3 °C 34601.5 hPa SW 5.6 km/h   53 % 0 mm
20:43 -12.2 °C -17.3 °C 34601.5 hPa West 3.1 km/h 3.1 km/h 53 % 0 mm
20:48 -12.3 °C -17.3 °C 34601.5 hPa Calm     53 % 0 mm
20:50 -14.6 °C -18.3 °C 34533.8 hPa West 5.1 km/h 5.1 km/h 62 % 0 mm
20:53 -12.3 °C -17.4 °C 34601.5 hPa SW 2.3 km/h   53 % 0 mm
20:58 -12.3 °C -17.4 °C 34601.5 hPa SW 3.7 km/h 3.7 km/h 53 % 0 mm
21:00 -14.6 °C -18.3 °C 34533.8 hPa WSW 5.1 km/h 7.7 km/h 62 % 0 mm
21:03 -12.5 °C -17.6 °C 34601.5 hPa SW 6 km/h 6 km/h 53 % 0 mm
21:08 -12.6 °C -17.6 °C 34601.5 hPa SW 6 km/h 6 km/h 53 % 0 mm
21:10 -14.7 °C -18.4 °C 34567.7 hPa WSW 5.1 km/h 7.7 km/h 62 % 0 mm
21:13 -12.6 °C -17.6 °C 34601.5 hPa SW 3.7 km/h 3.7 km/h 53 % 0 mm
21:18 -12.6 °C -17.6 °C 34601.5 hPa WSW 4.2 km/h 4.2 km/h 53 % 0 mm
21:20 -14.6 °C -18.3 °C 34567.7 hPa WSW 2.6 km/h 7.7 km/h 62 % 0 mm
21:23 -12.6 °C -17.6 °C 34601.5 hPa West 6.3 km/h 6.3 km/h 53 % 0 mm
21:28 -12.5 °C -17.6 °C 34601.5 hPa West 3.7 km/h 3.7 km/h 53 % 0 mm
21:30 -14.4 °C -18.2 °C 34567.7 hPa Calm   5.1 km/h 62 % 0 mm
21:33 -12.6 °C -17.6 °C 34601.5 hPa Calm     53 % 0 mm
21:38 -12.6 °C -17.6 °C 34601.5 hPa West 6 km/h 6 km/h 53 % 0 mm
21:40 -14.5 °C -18.1 °C 34567.7 hPa WSW 2.6 km/h 5.1 km/h 63 % 0 mm
21:43 -12.5 °C -17.6 °C 34601.5 hPa West 3.1 km/h 3.1 km/h 53 % 0 mm
21:48 -12.5 °C -17.6 °C 34635.4 hPa Calm     53 % 0 mm
21:50 -14.8 °C -18.4 °C 34567.7 hPa WSW 5.1 km/h 5.1 km/h 63 % 0 mm
21:53 -12.5 °C -17.6 °C 34635.4 hPa West 3.1 km/h 3.1 km/h 53 % 0 mm
21:58 -12.6 °C -17.6 °C 34635.4 hPa WSW 6 km/h 6 km/h 53 % 0 mm
22:00 -14.7 °C -18.3 °C 34567.7 hPa WSW 2.6 km/h 5.1 km/h 63 % 0 mm
22:03 -12.7 °C -17.8 °C 34601.5 hPa SW 6.3 km/h 6.3 km/h 53 % 0 mm
22:08 -12.8 °C -17.9 °C 34601.5 hPa WSW 6 km/h 6 km/h 53 % 0 mm
22:10 -14.7 °C -18.3 °C 34567.7 hPa West 2.6 km/h 5.1 km/h 63 % 0 mm
22:13 -12.9 °C -17.9 °C 34601.5 hPa WSW 6 km/h 6 km/h 53 % 0 mm
22:18 -12.9 °C -17.8 °C 34601.5 hPa WNW 5.1 km/h 5.1 km/h 54 % 0 mm
22:20 -14.7 °C -18.3 °C 34567.7 hPa WSW 5.1 km/h 5.1 km/h 63 % 0 mm
22:24 -12.9 °C -17.8 °C 34601.5 hPa SW 6.3 km/h 6.3 km/h 54 % 0 mm
22:29 -12.9 °C -17.8 °C 34601.5 hPa SW 3.7 km/h 4.2 km/h 54 % 0 mm
22:30 -14.7 °C -18.2 °C 34567.7 hPa Calm   5.1 km/h 64 % 0 mm
22:34 -13.1 °C -17.9 °C 34601.5 hPa SW 9 km/h 9 km/h 54 % 0 mm
22:39 -13.1 °C -17.9 °C 34601.5 hPa WSW 9 km/h 9 km/h 54 % 0 mm
22:40 -14.7 °C -18.2 °C 34533.8 hPa WSW 2.6 km/h 5.1 km/h 64 % 0 mm
22:44 -13.1 °C -18 °C 34601.5 hPa SW 3.7 km/h 3.7 km/h 54 % 0 mm
22:49 -13.1 °C -18 °C 34567.7 hPa SW 6 km/h 6 km/h 54 % 0 mm
22:50 -14.7 °C -18.2 °C 34533.8 hPa Calm   5.1 km/h 64 % 0 mm
22:54 -13.1 °C -18 °C 34567.7 hPa WSW 3.1 km/h 3.1 km/h 54 % 0 mm
22:59 -13.2 °C -18.1 °C 34567.7 hPa Calm     54 % 0 mm
23:00 -14.7 °C -18.1 °C 34533.8 hPa Calm   5.1 km/h 65 % 0 mm
23:04 -13.1 °C -18 °C 34601.5 hPa NW 6 km/h 6 km/h 54 % 0 mm
23:09 -13.1 °C -18 °C 34601.5 hPa NNW 3.7 km/h 3.7 km/h 54 % 0 mm
23:10 -14.9 °C -18.4 °C 34533.8 hPa NNW 2.6 km/h 2.6 km/h 64 % 0 mm
23:14 -13.2 °C -18.1 °C 34601.5 hPa NNW 3.1 km/h 3.1 km/h 54 % 0 mm
23:19 -13.4 °C -18.3 °C 34601.5 hPa SW 6 km/h 6 km/h 54 % 0 mm
23:20 -14.9 °C -18.3 °C 34533.8 hPa Calm   5.1 km/h 65 % 0 mm
23:24 -13.7 °C -18.5 °C 34601.5 hPa WSW 6 km/h 6 km/h 54 % 0 mm
23:29 -13.7 °C -18.4 °C 34601.5 hPa WSW 6 km/h 6 km/h 55 % 0 mm
23:30 -14.9 °C -18.3 °C 34533.8 hPa NNW 2.6 km/h 5.1 km/h 65 % 0 mm
23:34 -13.6 °C -18.3 °C 34601.5 hPa WSW 6 km/h 6 km/h 55 % 0 mm
23:39 -13.6 °C -18.3 °C 34601.5 hPa Calm     55 % 0 mm
23:44 -13.7 °C -18.4 °C 34601.5 hPa Calm     55 % 0 mm
23:49 -13.7 °C -18.3 °C 34601.5 hPa Calm     56 % 0 mm
23:50 -15 °C -18.4 °C 34533.8 hPa NNW 2.6 km/h 7.7 km/h 65 % 0 mm
23:54 -13.8 °C -18.3 °C 34601.5 hPa SSW 5.1 km/h   56 % 0 mm
23:59 -13.8 °C -18.3 °C 34601.5 hPa SW 6.3 km/h 6.3 km/h 56 % 0 mm
Meteo Sesrovires
Elogis d' Weather Underground - 1.5 mb

Guio original per  Jim McMurry - jmcmurry@mwt.net Adaptat per a la plantilla per  Wim van der Kuil - Leuven-Template.eu

Trobareu la nostra informacio del temps tambe a:

Weather Underground

AWEKAS